Time;durP1;ratioP1;P1;durP2;ratioP2;P2;SDS_P1;SDS_P2;PMS_P1;PMS_P2;Temp;Humidity;BMP_temperature;BMP_pressure;BME280_temperature;BME280_humidity;BME280_pressure;Samples;Min_cycle;Max_cycle;Signal;HPM_P1;HPM_P2
2022/11/26 00:00:13;;;;;;;21.43;10.87;;;;;;;5.89;100.00;102497.16;5295145;28;20020;-72
2022/11/26 00:02:45;;;;;;;28.43;11.17;;;;;;;5.89;100.00;102497.16;5300522;28;20044;-71
2022/11/26 00:05:16;;;;;;;22.67;10.30;;;;;;;5.90;100.00;102498.91;5299581;28;20162;-72
2022/11/26 00:07:53;;;;;;;26.20;12.77;;;;;;;5.92;100.00;102503.19;5296255;28;20008;-72
2022/11/26 00:10:28;;;;;;;31.73;10.27;;;;;;;5.88;100.00;102505.84;5295994;28;20482;-71
2022/11/26 00:13:00;;;;;;;24.23;10.33;;;;;;;5.70;100.00;102502.59;5297865;28;20035;-72
2022/11/26 00:15:31;;;;;;;22.17;10.00;;;;;;;5.81;100.00;102503.31;5273844;28;20021;-72
2022/11/26 00:18:02;;;;;;;22.10;10.10;;;;;;;5.84;100.00;102509.38;5288990;28;20035;-71
2022/11/26 00:20:33;;;;;;;21.33;9.97;;;;;;;5.78;100.00;102508.56;5296146;28;20490;-72
2022/11/26 00:23:05;;;;;;;25.80;11.53;;;;;;;5.83;100.00;102510.25;5295554;28;20024;-71
2022/11/26 00:25:41;;;;;;;31.53;12.67;;;;;;;5.83;100.00;102513.69;5296530;28;20016;-72
2022/11/26 00:28:32;;;;;;;31.70;12.63;;;;;;;5.81;100.00;102516.31;5296104;28;20024;-72
2022/11/26 00:31:11;;;;;;;24.03;11.20;;;;;;;5.73;100.00;102523.34;5283843;28;20032;-72
2022/11/26 00:33:42;;;;;;;25.97;11.90;;;;;;;5.78;100.00;102518.09;5295463;28;20035;-72
2022/11/26 00:36:29;;;;;;;25.40;10.43;;;;;;;5.80;100.00;102513.75;5299910;28;20402;-71
2022/11/26 00:39:10;;;;;;;22.57;9.70;;;;;;;5.62;100.00;102514.84;5295104;28;20024;-69
2022/11/26 00:41:44;;;;;;;28.27;10.93;;;;;;;5.55;100.00;102508.88;5295132;28;20032;-69
2022/11/26 00:44:21;;;;;;;22.43;9.70;;;;;;;5.48;100.00;102520.19;5293628;28;20026;-70
2022/11/26 00:46:52;;;;;;;25.57;8.93;;;;;;;5.37;100.00;102522.91;5289168;28;20169;-70
2022/11/26 00:49:24;;;;;;;22.13;9.53;;;;;;;5.53;100.00;102521.00;5295036;28;20103;-70
2022/11/26 00:51:55;;;;;;;29.47;10.20;;;;;;;5.24;100.00;102523.03;5295946;28;20028;-70
2022/11/26 00:54:27;;;;;;;19.13;8.80;;;;;;;5.20;100.00;102516.16;5295279;28;20039;-71
2022/11/26 00:56:58;;;;;;;16.90;9.80;;;;;;;5.31;100.00;102523.81;5295920;28;20055;-70
2022/11/26 00:59:30;;;;;;;20.63;8.97;;;;;;;5.17;100.00;102523.97;5295506;28;20703;-71
2022/11/26 01:02:01;;;;;;;23.73;10.33;;;;;;;5.12;100.00;102510.16;5295181;28;20072;-78
2022/11/26 01:04:33;;;;;;;25.83;9.00;;;;;;;5.08;100.00;102530.97;5291068;28;20020;-70
2022/11/26 01:07:05;;;;;;;19.93;9.40;;;;;;;5.17;100.00;102537.81;5289122;28;20031;-71
2022/11/26 01:09:37;;;;;;;25.27;10.57;;;;;;;5.15;100.00;102536.97;5295386;28;20028;-70
2022/11/26 01:12:13;;;;;;;24.80;9.00;;;;;;;5.17;100.00;102534.34;5294974;28;20047;-70
2022/11/26 01:14:45;;;;;;;20.97;9.77;;;;;;;5.10;100.00;102527.53;5294860;28;20023;-69
2022/11/26 01:17:16;;;;;;;20.47;9.80;;;;;;;4.87;100.00;102524.22;5295142;28;20035;-70
2022/11/26 01:19:47;;;;;;;24.20;10.03;;;;;;;5.01;100.00;102529.31;5281584;28;20043;-70
2022/11/26 01:22:21;;;;;;;18.40;9.33;;;;;;;5.03;100.00;102530.16;5293303;28;20035;-71
2022/11/26 01:24:53;;;;;;;18.88;8.77;;;;;;;4.95;100.00;102526.78;5295323;28;20463;-70
2022/11/26 01:27:24;;;;;;;18.97;9.93;;;;;;;4.93;100.00;102516.41;5294402;28;20034;-70
2022/11/26 01:29:55;;;;;;;22.63;10.13;;;;;;;5.07;100.00;102513.69;5294412;28;20028;-70
2022/11/26 01:32:26;;;;;;;24.83;10.70;;;;;;;4.97;100.00;102507.69;5295614;28;20442;-72
2022/11/26 01:34:58;;;;;;;20.53;10.87;;;;;;;4.88;100.00;102518.19;5299483;28;20502;-69
2022/11/26 01:37:29;;;;;;;22.93;9.53;;;;;;;4.91;100.00;102523.34;5282209;28;20494;-70
2022/11/26 01:40:00;;;;;;;28.33;10.97;;;;;;;5.04;100.00;102516.31;5294873;28;20638;-69
2022/11/26 01:42:45;;;;;;;22.33;10.50;;;;;;;5.01;100.00;102521.50;5295629;28;20077;-69
2022/11/26 01:45:20;;;;;;;24.85;9.23;;;;;;;4.79;100.00;102532.09;5294587;28;20111;-70
2022/11/26 01:47:51;;;;;;;23.50;9.27;;;;;;;4.80;100.00;102526.00;5294090;28;20024;-69
2022/11/26 01:50:32;;;;;;;18.83;9.60;;;;;;;4.95;100.00;102539.75;5294824;28;20085;-70
2022/11/26 01:53:10;;;;;;;26.63;11.07;;;;;;;4.98;100.00;102550.09;5290673;28;20012;-70
2022/11/26 01:55:49;;;;;;;26.37;11.10;;;;;;;5.00;100.00;102558.75;5293714;28;20394;-71
2022/11/26 01:58:37;;;;;;;22.33;9.80;;;;;;;4.92;100.00;102556.22;5292291;28;20113;-70
2022/11/26 02:01:09;;;;;;;19.63;9.60;;;;;;;4.79;100.00;102545.06;5289808;28;20024;-71
2022/11/26 02:03:48;;;;;;;28.00;10.33;;;;;;;4.73;100.00;102550.28;5299691;28;20082;-70
2022/11/26 02:06:25;;;;;;;30.20;10.73;;;;;;;4.89;100.00;102545.84;5297220;28;20066;-70
2022/11/26 02:08:58;;;;;;;23.40;10.60;;;;;;;4.96;100.00;102562.25;5299259;28;20084;-70
2022/11/26 02:11:30;;;;;;;24.30;10.43;;;;;;;4.91;100.00;102548.44;5296725;28;20660;-70
2022/11/26 02:14:11;;;;;;;23.50;10.80;;;;;;;4.99;100.00;102557.03;5298102;28;20107;-70
2022/11/26 02:16:51;;;;;;;27.00;11.40;;;;;;;4.83;100.00;102572.72;5287301;28;20352;-70
2022/11/26 02:19:50;;;;;;;24.73;11.10;;;;;;;4.96;100.00;102567.44;5293420;28;20507;-70
2022/11/26 02:23:00;;;;;;;28.87;11.43;;;;;;;4.95;100.00;102574.38;5289767;28;20166;-70
2022/11/26 02:26:01;;;;;;;26.07;10.93;;;;;;;4.87;100.00;102570.97;5297405;28;20042;-70
2022/11/26 02:28:51;;;;;;;26.20;10.73;;;;;;;4.89;100.00;102576.13;5297635;28;20096;-70
2022/11/26 02:31:39;;;;;;;35.23;11.83;;;;;;;4.92;100.00;102560.56;5297322;28;20560;-70
2022/11/26 02:34:23;;;;;;;26.17;10.80;;;;;;;4.95;100.00;102565.72;5298943;28;20056;-70
2022/11/26 02:37:00;;;;;;;25.95;10.68;;;;;;;4.94;100.00;102571.81;5298895;28;20026;-70
2022/11/26 02:39:31;;;;;;;28.83;11.77;;;;;;;4.94;100.00;102558.81;5298763;28;20038;-71
2022/11/26 02:42:22;;;;;;;23.53;12.40;;;;;;;4.94;100.00;102561.41;5298717;28;20024;-71
2022/11/26 02:44:57;;;;;;;28.53;11.63;;;;;;;4.94;100.00;102564.84;5286378;28;20514;-71
2022/11/26 02:47:31;;;;;;;26.90;10.73;;;;;;;4.88;100.00;102564.03;5296387;28;20039;-71
2022/11/26 02:50:09;;;;;;;25.92;11.25;;;;;;;4.91;100.00;102569.22;5298915;28;20431;-71
2022/11/26 02:52:41;;;;;;;30.37;11.83;;;;;;;4.86;100.00;102570.97;5293787;28;20036;-71
2022/11/26 02:55:17;;;;;;;32.27;12.07;;;;;;;4.82;100.00;102583.13;5291815;28;20030;-71
2022/11/26 02:57:51;;;;;;;21.43;10.87;;;;;;;4.73;100.00;102573.66;5285533;28;20076;-71
2022/11/26 03:00:23;;;;;;;25.00;10.53;;;;;;;4.59;100.00;102579.81;5294222;28;20076;-69
2022/11/26 03:03:10;;;;;;;23.43;11.27;;;;;;;4.69;100.00;102587.53;5298223;28;20406;-70
2022/11/26 03:05:42;;;;;;;25.40;11.73;;;;;;;4.56;100.00;102585.03;5284022;28;20031;-70
2022/11/26 03:08:14;;;;;;;26.23;9.47;;;;;;;4.53;100.00;102590.25;5287858;28;20025;-70
2022/11/26 03:10:46;;;;;;;21.73;10.00;;;;;;;4.58;100.00;102598.88;5292285;28;20041;-70
2022/11/26 03:13:17;;;;;;;26.83;11.30;;;;;;;4.58;100.00;102598.88;5298212;28;20032;-70
2022/11/26 03:15:48;;;;;;;24.10;10.20;;;;;;;4.50;100.00;102590.28;5297043;28;20040;-70
2022/11/26 03:18:20;;;;;;;21.37;9.80;;;;;;;4.66;100.00;102597.97;5290109;28;20040;-71
2022/11/26 03:20:51;;;;;;;25.57;10.97;;;;;;;4.45;100.00;102603.25;5291814;28;20024;-70
2022/11/26 03:23:22;;;;;;;24.77;10.03;;;;;;;4.52;100.00;102609.25;5298102;28;20068;-71
2022/11/26 03:25:53;;;;;;;24.07;9.27;;;;;;;4.41;100.00;102605.88;5297799;28;20375;-71
2022/11/26 03:28:25;;;;;;;22.47;11.20;;;;;;;4.46;100.00;102598.94;5301802;28;20516;-71
2022/11/26 03:30:56;;;;;;;26.40;9.70;;;;;;;4.43;100.00;102609.34;5297391;28;20085;-71
2022/11/26 03:33:27;;;;;;;25.20;9.90;;;;;;;4.48;100.00;102615.34;5301633;28;20035;-71
2022/11/26 03:35:59;;;;;;;29.87;10.37;;;;;;;4.33;100.00;102616.28;5297655;28;20073;-71
2022/11/26 03:38:30;;;;;;;20.10;8.90;;;;;;;4.40;100.00;102612.78;5296856;28;20043;-71
2022/11/26 03:41:03;;;;;;;29.03;9.10;;;;;;;4.29;100.00;102618.06;5296835;28;20209;-70
2022/11/26 03:43:34;;;;;;;20.47;10.03;;;;;;;4.32;100.00;102611.97;5296785;28;20079;-71
2022/11/26 03:46:05;;;;;;;24.47;10.53;;;;;;;4.29;100.00;102615.47;5290112;28;20066;-71
2022/11/26 03:48:37;;;;;;;23.33;10.27;;;;;;;4.28;100.00;102616.31;5292393;28;20043;-71
2022/11/26 03:51:08;;;;;;;24.10;9.87;;;;;;;4.14;100.00;102608.59;5295998;28;20123;-71
2022/11/26 03:53:39;;;;;;;21.53;10.00;;;;;;;4.34;100.00;102613.69;5296681;28;20103;-71
2022/11/26 03:56:10;;;;;;;19.47;9.93;;;;;;;4.29;100.00;102612.88;5287942;28;20032;-71
2022/11/26 03:58:42;;;;;;;22.20;9.47;;;;;;;4.29;100.00;102617.19;5302724;28;20043;-71
2022/11/26 04:01:13;;;;;;;17.33;9.93;;;;;;;4.17;100.00;102613.75;5295819;28;20082;-71
2022/11/26 04:03:44;;;;;;;23.90;9.03;;;;;;;4.24;100.00;102625.84;5293385;28;20111;-71
2022/11/26 04:06:16;;;;;;;25.27;8.93;;;;;;;4.11;100.00;102604.28;5296377;28;20031;-71
2022/11/26 04:08:47;;;;;;;20.03;10.00;;;;;;;4.16;100.00;102624.13;5296418;28;20028;-71
2022/11/26 04:11:18;;;;;;;25.73;9.37;;;;;;;4.27;100.00;102631.88;5296913;28;20420;-71
2022/11/26 04:13:49;;;;;;;21.37;9.00;;;;;;;4.32;100.00;102633.59;5297251;28;20432;-71
2022/11/26 04:16:21;;;;;;;19.93;8.47;;;;;;;4.19;100.00;102632.78;5295484;28;20098;-71
2022/11/26 04:18:52;;;;;;;19.53;8.33;;;;;;;4.23;100.00;102641.41;5297424;28;20028;-71
2022/11/26 04:21:23;;;;;;;24.97;10.50;;;;;;;4.21;100.00;102651.78;5295753;28;20024;-71
2022/11/26 04:23:55;;;;;;;28.67;9.83;;;;;;;4.05;100.00;102643.19;5296721;28;20051;-71
2022/11/26 04:26:26;;;;;;;22.07;8.93;;;;;;;4.10;100.00;102649.22;5280738;28;20024;-71
2022/11/26 04:28:57;;;;;;;21.13;8.10;;;;;;;3.96;100.00;102630.28;5296775;28;20023;-70
2022/11/26 04:31:29;;;;;;;30.30;9.50;;;;;;;4.09;100.00;102646.63;5294579;28;20390;-71
2022/11/26 04:34:00;;;;;;;28.13;9.70;;;;;;;4.11;100.00;102645.78;5288582;28;20021;-70
2022/11/26 04:36:31;;;;;;;24.53;10.17;;;;;;;4.08;100.00;102640.63;5293069;28;20023;-70
2022/11/26 04:39:03;;;;;;;24.20;9.57;;;;;;;3.95;100.00;102639.78;5290313;28;20023;-70
2022/11/26 04:41:34;;;;;;;22.30;8.27;;;;;;;4.07;100.00;102644.06;5296315;28;20546;-70
2022/11/26 04:44:05;;;;;;;18.63;8.07;;;;;;;3.99;100.00;102645.81;5295828;28;20031;-70
2022/11/26 04:46:36;;;;;;;23.40;10.30;;;;;;;4.13;100.00;102650.09;5295729;28;20032;-70
2022/11/26 04:49:08;;;;;;;19.63;9.47;;;;;;;4.05;100.00;102650.97;5295682;28;20028;-70
2022/11/26 04:51:39;;;;;;;17.63;7.73;;;;;;;4.14;100.00;102655.25;5296211;28;20067;-70
2022/11/26 04:54:10;;;;;;;22.70;8.50;;;;;;;4.05;100.00;102653.56;5281857;28;20390;-70
2022/11/26 04:56:41;;;;;;;25.37;8.97;;;;;;;3.98;100.00;102646.66;5295588;28;20381;-70
2022/11/26 04:59:13;;;;;;;20.07;8.70;;;;;;;4.13;100.00;102648.38;5294500;28;20394;-70
2022/11/26 05:01:44;;;;;;;22.70;9.10;;;;;;;4.11;100.00;102653.56;5296340;28;20062;-71
2022/11/26 05:04:15;;;;;;;23.83;8.80;;;;;;;4.11;100.00;102639.72;5299724;28;20438;-70
2022/11/26 05:06:46;;;;;;;18.77;8.03;;;;;;;4.08;100.00;102650.97;5295001;28;20031;-70
2022/11/26 05:09:18;;;;;;;26.17;8.37;;;;;;;4.10;100.00;102649.22;5289820;28;20023;-71
2022/11/26 05:11:49;;;;;;;21.67;9.30;;;;;;;4.07;100.00;102658.75;5294358;28;20044;-70
2022/11/26 05:14:20;;;;;;;25.90;9.93;;;;;;;4.21;100.00;102656.09;5285378;28;20036;-70
2022/11/26 05:16:52;;;;;;;22.13;8.53;;;;;;;4.05;100.00;102666.53;5294744;28;20046;-71
2022/11/26 05:19:23;;;;;;;20.70;8.50;;;;;;;4.08;100.00;102663.06;5294690;28;20119;-71
2022/11/26 05:21:54;;;;;;;24.17;8.67;;;;;;;4.07;100.00;102664.81;5295318;28;20024;-71
2022/11/26 05:24:26;;;;;;;24.60;9.97;;;;;;;4.03;100.00;102652.72;5295128;28;20077;-72
2022/11/26 05:26:57;;;;;;;29.83;10.57;;;;;;;4.01;100.00;102653.59;5295243;28;20023;-73
2022/11/26 05:29:28;;;;;;;24.93;9.67;;;;;;;4.13;100.00;102666.53;5296443;28;20031;-72
2022/11/26 05:32:00;;;;;;;24.27;8.87;;;;;;;4.03;100.00;102665.69;5298089;28;20031;-72
2022/11/26 05:34:31;;;;;;;23.67;9.60;;;;;;;4.07;100.00;102669.97;5297239;28;20044;-72
2022/11/26 05:37:02;;;;;;;23.07;9.27;;;;;;;4.05;100.00;102671.72;5299827;28;20034;-73
2022/11/26 05:39:34;;;;;;;26.03;9.33;;;;;;;4.05;100.00;102671.72;5299173;28;20036;-73
2022/11/26 05:42:05;;;;;;;22.57;9.60;;;;;;;4.03;100.00;102677.78;5292808;28;20502;-71
2022/11/26 05:44:37;;;;;;;22.13;9.93;;;;;;;4.05;100.00;102671.72;5297800;28;20060;-73
2022/11/26 05:47:08;;;;;;;30.00;9.97;;;;;;;4.09;100.00;102678.63;5297605;28;20211;-72
2022/11/26 05:49:39;;;;;;;27.03;9.30;;;;;;;3.98;100.00;102680.38;5298205;28;20110;-72
2022/11/26 05:52:10;;;;;;;21.33;9.37;;;;;;;4.10;100.00;102669.97;5298725;28;20024;-72
2022/11/26 05:54:42;;;;;;;26.87;9.87;;;;;;;4.09;100.00;102672.56;5299488;28;20080;-77
2022/11/26 05:57:13;;;;;;;21.20;9.73;;;;;;;4.17;100.00;102677.75;5298670;28;20039;-75
2022/11/26 05:59:48;;;;;;;24.83;9.90;;;;;;;3.97;100.00;102676.06;5300083;28;20397;-76
2022/11/26 06:02:19;;;;;;;29.08;10.57;;;;;;;4.14;100.00;102693.31;5299420;28;20082;-76
2022/11/26 06:04:50;;;;;;;25.40;8.47;;;;;;;4.04;100.00;102695.94;5294162;28;20579;-74
2022/11/26 06:07:22;;;;;;;24.90;10.57;;;;;;;4.10;100.00;102697.66;5299008;28;20070;-74
2022/11/26 06:09:53;;;;;;;24.97;10.83;;;;;;;4.03;100.00;102709.78;5296893;28;20035;-75
2022/11/26 06:12:24;;;;;;;31.70;10.23;;;;;;;4.14;100.00;102708.88;5300207;28;20069;-72
2022/11/26 06:14:55;;;;;;;25.33;9.77;;;;;;;4.03;100.00;102709.78;5297691;28;20043;-72
2022/11/26 06:17:27;;;;;;;30.47;9.30;;;;;;;4.10;100.00;102693.31;5296859;28;20036;-71
2022/11/26 06:19:58;;;;;;;25.20;10.03;;;;;;;4.17;100.00;102701.94;5292917;28;20032;-72
2022/11/26 06:22:30;;;;;;;23.87;9.90;;;;;;;4.08;100.00;102697.66;5299063;28;20032;-71
2022/11/26 06:25:01;;;;;;;27.63;9.93;;;;;;;4.11;100.00;102705.44;5298803;28;20040;-71
2022/11/26 06:27:33;;;;;;;25.17;9.63;;;;;;;4.07;100.00;102706.28;5298659;28;20024;-71
2022/11/26 06:30:06;;;;;;;29.00;11.13;;;;;;;4.00;100.00;102704.56;5298599;28;20031;-71
2022/11/26 06:32:37;;;;;;;23.27;8.90;;;;;;;4.07;100.00;102716.66;5291173;28;20438;-71
2022/11/26 06:35:09;;;;;;;33.60;10.70;;;;;;;4.07;100.00;102705.41;5298335;28;20020;-71
2022/11/26 06:37:40;;;;;;;30.20;10.90;;;;;;;4.07;100.00;102711.47;5299105;28;20068;-71
2022/11/26 06:40:16;;;;;;;25.97;9.97;;;;;;;4.04;100.00;102718.41;5295586;28;20036;-72
2022/11/26 06:42:49;;;;;;;26.23;9.47;;;;;;;3.99;100.00;102713.22;5298349;28;20095;-72
2022/11/26 06:45:22;;;;;;;29.77;11.60;;;;;;;3.87;100.00;102719.28;5295304;28;20035;-71
2022/11/26 06:47:53;;;;;;;26.10;9.87;;;;;;;3.95;100.00;102716.69;5297696;28;20028;-71
2022/11/26 06:50:24;;;;;;;26.73;10.80;;;;;;;4.01;100.00;102726.19;5297180;28;20081;-72
2022/11/26 06:52:55;;;;;;;25.60;10.17;;;;;;;3.98;100.00;102727.03;5297588;28;20700;-71
2022/11/26 06:55:27;;;;;;;24.33;10.80;;;;;;;3.97;100.00;102725.31;5297236;28;20020;-72
2022/11/26 06:57:58;;;;;;;26.57;10.43;;;;;;;4.03;100.00;102727.94;5298191;28;20082;-72
2022/11/26 07:00:29;;;;;;;24.03;10.03;;;;;;;3.94;100.00;102725.34;5297550;28;20043;-72
2022/11/26 07:03:00;;;;;;;26.10;10.10;;;;;;;3.91;100.00;102726.19;5297745;28;20445;-71
2022/11/26 07:05:35;;;;;;;22.43;9.27;;;;;;;3.95;100.00;102737.41;5297143;28;20440;-71
2022/11/26 07:08:06;;;;;;;20.93;10.10;;;;;;;3.77;100.00;102728.78;5297947;28;20095;-72
2022/11/26 07:10:38;;;;;;;19.83;9.90;;;;;;;3.85;100.00;102739.16;5297930;28;20829;-71
2022/11/26 07:13:09;;;;;;;23.23;10.23;;;;;;;3.86;100.00;102740.88;5298669;28;20020;-72
2022/11/26 07:15:40;;;;;;;23.60;10.43;;;;;;;3.87;100.00;102751.25;5297881;28;20024;-71
2022/11/26 07:18:12;;;;;;;22.80;10.27;;;;;;;3.76;100.00;102753.00;5297979;28;20038;-72
2022/11/26 07:20:43;;;;;;;23.27;11.47;;;;;;;3.94;100.00;102753.84;5298043;28;20383;-71
2022/11/26 07:23:14;;;;;;;30.40;10.07;;;;;;;3.87;100.00;102760.78;5298431;28;20376;-72
2022/11/26 07:25:45;;;;;;;29.27;10.97;;;;;;;3.82;100.00;102758.16;5301658;28;20518;-71
2022/11/26 07:28:17;;;;;;;23.67;10.37;;;;;;;3.82;100.00;102763.34;5298069;28;20035;-71
2022/11/26 07:30:48;;;;;;;27.73;11.20;;;;;;;3.76;100.00;102763.34;5296901;28;20071;-72
2022/11/26 07:33:19;;;;;;;26.60;13.03;;;;;;;3.74;100.00;102757.31;5295922;28;20031;-71
2022/11/26 07:35:50;;;;;;;26.00;11.77;;;;;;;3.87;100.00;102761.63;5297772;28;20811;-72
2022/11/26 07:38:22;;;;;;;29.13;11.97;;;;;;;3.92;100.00;102763.34;5297269;28;20115;-72
2022/11/26 07:40:54;;;;;;;23.67;10.87;;;;;;;3.89;100.00;102768.53;5297467;28;20028;-71
2022/11/26 07:43:25;;;;;;;27.33;12.30;;;;;;;3.83;100.00;102766.81;5296122;28;20115;-71
2022/11/26 07:46:00;;;;;;;31.47;12.80;;;;;;;3.87;100.00;102764.22;5296267;28;20111;-72
2022/11/26 07:48:32;;;;;;;37.30;13.77;;;;;;;3.95;100.00;102760.75;5297139;28;20032;-70
2022/11/26 07:51:04;;;;;;;34.00;13.23;;;;;;;3.94;100.00;102766.81;5300575;28;20121;-71
2022/11/26 07:53:35;;;;;;;35.27;14.40;;;;;;;4.07;100.00;102771.13;5296931;28;20115;-71
2022/11/26 07:56:07;;;;;;;35.17;13.20;;;;;;;4.05;100.00;102767.66;5296374;28;20032;-71
2022/11/26 07:58:38;;;;;;;29.60;15.27;;;;;;;4.08;100.00;102765.09;5296135;28;20076;-70
2022/11/26 08:01:12;;;;;;;27.60;12.93;;;;;;;4.08;100.00;102759.91;5296271;28;20028;-70
2022/11/26 08:03:46;;;;;;;33.13;14.50;;;;;;;4.03;100.00;102764.22;5293657;28;20114;-70
2022/11/26 08:06:20;;;;;;;28.30;12.27;;;;;;;4.13;100.00;102766.78;5296963;28;20486;-70
2022/11/26 08:08:51;;;;;;;25.02;13.38;;;;;;;4.19;100.00;102766.78;5296527;28;20035;-70
2022/11/26 08:11:25;;;;;;;30.40;13.00;;;;;;;4.13;100.00;102770.25;5297035;28;20032;-70
2022/11/26 08:13:58;;;;;;;31.52;13.93;;;;;;;4.27;100.00;102769.34;5295919;28;20036;-70
2022/11/26 08:16:30;;;;;;;29.07;13.03;;;;;;;4.35;100.00;102768.47;5296451;28;20141;-71
2022/11/26 08:19:05;;;;;;;37.83;13.60;;;;;;;4.39;100.00;102765.88;5297283;28;20740;-71
2022/11/26 08:21:38;;;;;;;29.40;14.10;;;;;;;4.48;100.00;102773.63;5294682;28;20157;-71
2022/11/26 08:24:16;;;;;;;33.27;13.97;;;;;;;4.53;100.00;102768.44;5297062;28;20059;-71
2022/11/26 08:26:47;;;;;;;33.00;14.57;;;;;;;4.54;100.00;102771.00;5291377;28;20544;-70
2022/11/26 08:29:18;;;;;;;40.90;15.27;;;;;;;4.49;100.00;102777.94;5295257;28;20032;-70
2022/11/26 08:31:50;;;;;;;29.20;15.00;;;;;;;4.54;100.00;102773.59;5295816;28;20024;-70
2022/11/26 08:34:21;;;;;;;32.50;14.90;;;;;;;4.66;100.00;102782.25;5296565;28;20039;-71
2022/11/26 08:36:54;;;;;;;34.77;13.67;;;;;;;4.72;100.00;102779.63;5294446;28;20036;-70
2022/11/26 08:39:25;;;;;;;30.27;12.73;;;;;;;4.69;100.00;102777.03;5295663;28;20348;-70
2022/11/26 08:41:56;;;;;;;39.87;13.73;;;;;;;4.78;100.00;102782.16;5295969;28;20081;-71
2022/11/26 08:44:28;;;;;;;29.50;12.50;;;;;;;4.83;100.00;102785.59;5293898;28;20032;-71
2022/11/26 08:46:59;;;;;;;34.30;11.10;;;;;;;4.87;100.00;102785.63;5279550;28;20478;-71
2022/11/26 08:49:30;;;;;;;27.07;12.33;;;;;;;4.87;100.00;102777.84;5296048;28;20639;-71
2022/11/26 08:52:01;;;;;;;30.43;12.33;;;;;;;4.84;100.00;102776.97;5296236;28;20034;-71
2022/11/26 08:54:33;;;;;;;35.10;14.47;;;;;;;4.98;100.00;102783.81;5295903;28;20470;-70
2022/11/26 08:57:04;;;;;;;36.30;12.90;;;;;;;5.02;100.00;102784.69;5295599;28;20481;-71
2022/11/26 08:59:35;;;;;;;28.30;12.27;;;;;;;4.97;100.00;102784.72;5295402;28;20471;-69
2022/11/26 09:02:09;;;;;;;28.50;12.63;;;;;;;5.01;100.00;102782.97;5295561;28;20028;-70
2022/11/26 09:04:40;;;;;;;29.93;13.77;;;;;;;5.03;100.00;102783.78;5294728;28;20124;-70
2022/11/26 09:07:12;;;;;;;33.13;12.90;;;;;;;5.08;100.00;102789.81;5293755;28;20794;-70
2022/11/26 09:09:43;;;;;;;29.40;11.00;;;;;;;5.08;100.00;102784.63;5291499;28;20394;-70
2022/11/26 09:12:14;;;;;;;25.67;12.47;;;;;;;5.22;100.00;102802.75;5294609;28;20020;-70
2022/11/26 09:14:46;;;;;;;28.73;12.43;;;;;;;5.23;100.00;102801.91;5286968;28;20047;-70
2022/11/26 09:17:17;;;;;;;31.57;11.63;;;;;;;5.22;100.00;102797.53;5294839;28;20024;-70
2022/11/26 09:19:48;;;;;;;38.93;12.37;;;;;;;5.26;100.00;102799.28;5294724;28;20024;-71
2022/11/26 09:22:20;;;;;;;31.07;11.83;;;;;;;5.31;100.00;102802.69;5299449;28;20057;-71
2022/11/26 09:24:51;;;;;;;34.10;12.00;;;;;;;5.32;100.00;102804.41;5294725;28;20024;-71
2022/11/26 09:27:22;;;;;;;28.77;11.60;;;;;;;5.36;100.00;102810.47;5294511;28;20032;-71
2022/11/26 09:29:53;;;;;;;29.30;12.00;;;;;;;5.39;100.00;102804.41;5293052;28;20036;-71
2022/11/26 09:32:25;;;;;;;31.60;11.93;;;;;;;5.42;100.00;102812.16;5291107;28;20063;-70
2022/11/26 09:34:56;;;;;;;27.57;11.13;;;;;;;5.44;100.00;102819.09;5292965;28;20569;-70
2022/11/26 09:37:30;;;;;;;29.87;12.17;;;;;;;5.51;100.00;102829.44;5292574;28;20028;-71
2022/11/26 09:40:01;;;;;;;34.63;12.00;;;;;;;5.57;100.00;102827.66;5293672;28;20028;-71
2022/11/26 09:42:38;;;;;;;30.33;11.30;;;;;;;5.65;100.00;102835.44;5294017;28;20029;-71
2022/11/26 09:45:29;;;;;;;36.07;13.77;;;;;;;5.70;100.00;102835.38;5290982;28;20028;-71
2022/11/26 09:48:02;;;;;;;31.10;12.50;;;;;;;5.69;100.00;102812.84;5293984;28;20039;-71
2022/11/26 09:50:35;;;;;;;30.67;10.93;;;;;;;5.79;100.00;102817.13;5293274;28;20081;-71
2022/11/26 09:53:20;;;;;;;28.17;11.57;;;;;;;5.83;100.00;102814.50;5293087;28;20550;-72
2022/11/26 09:55:54;;;;;;;31.00;12.43;;;;;;;5.88;100.00;102818.75;5295481;28;20028;-72
2022/11/26 09:58:47;;;;;;;30.27;12.05;;;;;;;5.96;100.00;102815.25;5293759;28;20036;-74
2022/11/26 10:01:21;;;;;;;33.50;12.97;;;;;;;5.98;100.00;102809.16;5289199;28;20032;-74
2022/11/26 10:03:52;;;;;;;27.75;12.32;;;;;;;5.98;100.00;102809.16;5289563;28;20550;-72
2022/11/26 10:06:46;;;;;;;33.03;11.37;;;;;;;6.07;100.00;102817.78;5294845;28;20139;-73
2022/11/26 10:09:21;;;;;;;28.93;10.83;;;;;;;6.01;100.00;102824.75;5292689;28;20024;-71
2022/11/26 10:12:10;;;;;;;36.65;13.68;;;;;;;6.13;100.00;102830.72;5294636;28;20432;-73
2022/11/26 10:14:51;;;;;;;29.60;10.43;;;;;;;6.17;100.00;102815.09;5291729;28;20020;-73
2022/11/26 10:17:28;;;;;;;33.80;12.13;;;;;;;6.23;100.00;102823.72;5293445;28;20121;-73
2022/11/26 10:20:13;;;;;;;26.67;11.07;;;;;;;6.31;100.00;102821.91;5297180;28;20028;-73
2022/11/26 10:22:50;;;;;;;36.83;10.68;;;;;;;6.36;100.00;102824.44;5298957;28;20016;-73
2022/11/26 10:25:27;;;;;;;33.87;11.67;;;;;;;6.40;100.00;102820.94;5301859;28;20085;-73
2022/11/26 10:27:59;;;;;;;29.87;11.77;;;;;;;6.44;100.00;102813.97;5299319;28;20016;-72
2022/11/26 10:30:31;;;;;;;28.47;11.63;;;;;;;6.59;100.00;102820.75;5297975;28;20512;-71
2022/11/26 10:33:06;;;;;;;39.47;12.27;;;;;;;6.64;100.00;102818.97;5294987;28;20512;-71
2022/11/26 10:35:40;;;;;;;;;;;;;;;6.79;100.00;102812.69;5297438;28;20036;-71
2022/11/26 10:38:11;;;;;;;34.47;10.40;;;;;;;6.68;100.00;102789.41;5294961;28;19923;-71
2022/11/26 10:40:42;;;;;;;33.37;11.63;;;;;;;6.72;100.00;102795.44;5295782;28;20484;-71
2022/11/26 10:43:20;;;;;;;29.60;10.53;;;;;;;6.83;100.00;102795.28;5297250;28;20028;-71
2022/11/26 10:45:54;;;;;;;26.70;10.43;;;;;;;6.78;100.00;102796.22;5284552;28;20028;-71
2022/11/26 10:48:33;;;;;;;31.80;12.80;;;;;;;6.86;100.00;102790.91;5298247;28;20115;-71
2022/11/26 10:51:12;;;;;;;30.63;10.20;;;;;;;6.85;100.00;102788.34;5297885;28;20029;-72
2022/11/26 10:53:53;;;;;;;32.97;10.30;;;;;;;6.90;100.00;102794.34;5298661;28;20031;-72
2022/11/26 10:56:35;;;;;;;28.60;10.67;;;;;;;6.98;100.00;102797.69;5297871;28;20036;-73
2022/11/26 10:59:29;;;;;;;29.27;9.90;;;;;;;7.05;100.00;102797.63;5297167;28;20031;-73
2022/11/26 11:02:05;;;;;;;26.53;10.17;;;;;;;7.10;100.00;102801.03;5298051;28;20106;-73
2022/11/26 11:04:39;;;;;;;36.27;10.17;;;;;;;7.18;100.00;102799.19;5287180;28;20040;-74
2022/11/26 11:07:46;;;;;;;30.40;10.02;;;;;;;7.29;100.00;102786.00;5297774;28;20877;-73
2022/11/26 11:10:20;;;;;;;26.63;10.73;;;;;;;7.33;100.00;102781.63;5243228;28;20556;-73
2022/11/26 11:13:12;;;;;;;24.83;8.63;;;;;;;7.44;100.00;102784.03;5289813;28;20559;-72
2022/11/26 11:15:44;;;;;;;24.87;9.47;;;;;;;7.46;100.00;102783.16;5297237;28;20035;-72
2022/11/26 11:18:20;;;;;;;29.20;8.93;;;;;;;7.59;100.00;102786.41;5297723;28;20187;-72
2022/11/26 11:20:57;;;;;;;29.67;9.27;;;;;;;7.61;100.00;102786.41;5297264;28;20467;-72
2022/11/26 11:23:35;;;;;;;22.73;8.83;;;;;;;7.71;100.00;102798.41;5296697;28;20035;-72
2022/11/26 11:26:23;;;;;;;33.47;9.10;;;;;;;7.73;100.00;102790.56;5296729;28;20036;-73
2022/11/26 11:28:55;;;;;;;28.70;8.27;;;;;;;7.78;100.00;102795.69;5286600;28;20020;-72
2022/11/26 11:31:27;;;;;;;31.40;9.10;;;;;;;7.89;100.00;102796.38;5296102;28;20042;-72
2022/11/26 11:34:18;;;;;;;28.13;9.37;;;;;;;7.89;100.00;102796.38;5293406;28;20465;-71
2022/11/26 11:37:09;;;;;;;25.27;9.27;;;;;;;7.93;100.00;102792.84;5296684;28;20020;-71
2022/11/26 11:39:41;;;;;;;26.83;7.83;;;;;;;7.91;100.00;102793.72;5292102;28;20119;-72
2022/11/26 11:42:21;;;;;;;25.33;8.47;;;;;;;8.02;100.00;102785.72;5293370;28;20107;-72